Time;durP1;ratioP1;P1;durP2;ratioP2;P2;SDS_P1;SDS_P2;PMS_P1;PMS_P2;Temp;Humidity;BMP_temperature;BMP_pressure;BME280_temperature;BME280_humidity;BME280_pressure;Samples;Min_cycle;Max_cycle;Signal;HPM_P1;HPM_P2
2023/05/28 00:02:53;;;;;;;7.18;3.28;;;;;;;14.44;67.36;100001.66;12195221;19;20118;-81
2023/05/28 00:06:55;;;;;;;7.87;3.30;;;;;;;14.43;66.12;99997.25;12216150;19;20007;-80
2023/05/28 00:10:59;;;;;;;8.00;3.25;;;;;;;14.43;66.28;99997.25;12213697;19;20055;-81
2023/05/28 00:15:02;;;;;;;11.85;3.45;;;;;;;14.40;66.61;99996.94;12181910;19;20020;-81
2023/05/28 00:19:04;;;;;;;10.75;3.85;;;;;;;14.36;66.40;99996.63;12213274;19;20010;-82
2023/05/28 00:23:07;;;;;;;8.18;3.17;;;;;;;14.30;67.23;99995.78;12193323;19;20093;-81
2023/05/28 00:27:09;;;;;;;9.57;3.70;;;;;;;14.21;67.83;99980.75;12213842;19;20011;-81
2023/05/28 00:31:12;;;;;;;8.33;3.80;;;;;;;14.17;68.54;99979.66;12211381;19;20007;-81
2023/05/28 00:35:14;;;;;;;9.20;3.60;;;;;;;14.09;67.80;99978.22;12188202;19;20372;-80
2023/05/28 00:39:19;;;;;;;8.48;3.22;;;;;;;14.07;67.71;99980.44;12211797;19;20213;-80
2023/05/28 00:43:20;;;;;;;8.80;3.88;;;;;;;14.04;67.65;99975.44;12211622;19;20078;-81
2023/05/28 00:47:22;;;;;;;6.32;3.70;;;;;;;14.00;68.31;99973.44;12188063;19;20354;-80
2023/05/28 00:51:24;;;;;;;8.02;3.20;;;;;;;13.94;68.86;99969.00;12210564;19;20017;-80
2023/05/28 00:55:26;;;;;;;7.85;3.55;;;;;;;13.90;69.25;99968.69;12210418;19;20670;-81
2023/05/28 00:59:28;;;;;;;6.68;3.25;;;;;;;13.92;68.82;99969.28;12189556;19;20023;-81
2023/05/28 01:03:30;;;;;;;9.70;2.83;;;;;;;13.93;69.15;99962.63;12209632;19;20019;-81
2023/05/28 01:07:32;;;;;;;7.32;3.33;;;;;;;13.87;70.09;99967.28;12209235;19;20011;-80
2023/05/28 01:11:36;;;;;;;10.03;3.57;;;;;;;13.85;69.22;99955.63;12186111;19;20074;-80
2023/05/28 01:15:40;;;;;;;6.38;3.45;;;;;;;13.87;68.95;99958.97;12200865;19;20377;-81
2023/05/28 01:19:42;;;;;;;6.68;2.75;;;;;;;13.95;68.02;99962.34;12207833;19;20440;-80
2023/05/28 01:23:47;;;;;;;9.40;3.95;;;;;;;14.00;68.48;99956.81;12188229;19;20014;-81
2023/05/28 01:27:49;;;;;;;8.50;3.30;;;;;;;13.96;68.57;99956.53;12208252;19;20007;-81
2023/05/28 01:31:51;;;;;;;7.30;3.30;;;;;;;13.93;68.98;99951.53;12208184;19;20014;-81
2023/05/28 01:35:56;;;;;;;11.40;3.65;;;;;;;13.87;69.38;99945.13;12185002;19;20007;-81
2023/05/28 01:39:58;;;;;;;10.40;3.55;;;;;;;13.84;69.43;99947.63;12206985;19;20070;-80
2023/05/28 01:44:02;;;;;;;6.97;3.50;;;;;;;13.82;69.42;99947.88;12211962;19;20014;-80
2023/05/28 01:48:05;;;;;;;9.73;4.28;;;;;;;13.85;68.89;99943.72;12199475;19;20015;-80
2023/05/28 01:52:08;;;;;;;10.65;4.20;;;;;;;13.87;67.84;99950.66;12219575;19;20581;-80
2023/05/28 01:56:10;;;;;;;6.38;3.15;;;;;;;13.96;67.27;99942.69;12194094;19;20007;-81
2023/05/28 02:00:14;;;;;;;13.60;4.05;;;;;;;13.99;66.94;99935.78;12219274;19;20007;-81
2023/05/28 02:04:16;;;;;;;7.28;3.13;;;;;;;14.06;66.13;99952.97;12220157;19;20010;-81
2023/05/28 02:08:18;;;;;;;8.83;3.37;;;;;;;14.12;65.67;99947.19;12199625;19;20375;-81
2023/05/28 02:12:20;;;;;;;10.60;3.53;;;;;;;14.17;65.52;99951.94;12221510;19;20007;-81
2023/05/28 02:16:22;;;;;;;8.88;3.40;;;;;;;14.17;65.36;99957.47;12219469;19;20007;-81
2023/05/28 02:20:24;;;;;;;7.93;3.90;;;;;;;14.14;65.52;99958.03;12197409;19;20068;-81
2023/05/28 02:24:26;;;;;;;9.13;4.43;;;;;;;14.00;66.19;99962.38;12219955;19;20077;-81
2023/05/28 02:28:28;;;;;;;7.75;3.40;;;;;;;13.74;66.90;99958.59;12211855;19;20022;-81
2023/05/28 02:32:30;;;;;;;8.63;3.72;;;;;;;13.44;68.37;99960.91;12199202;19;20011;-81
2023/05/28 02:36:32;;;;;;;10.10;4.93;;;;;;;13.18;69.28;99950.72;12218658;19;20007;-81
2023/05/28 02:40:34;;;;;;;10.20;3.90;;;;;;;12.96;71.09;99959.06;12214823;19;21557;-81
2023/05/28 02:44:36;;;;;;;10.77;3.88;;;;;;;12.77;71.98;99956.69;12199326;19;20013;-81
2023/05/28 02:48:39;;;;;;;11.60;4.30;;;;;;;12.56;72.85;99957.56;12231367;19;20028;-80
2023/05/28 02:52:42;;;;;;;13.95;4.38;;;;;;;12.39;74.74;99952.09;12214978;19;20043;-80
2023/05/28 02:56:44;;;;;;;8.60;3.72;;;;;;;12.24;75.74;99949.16;12193412;19;20085;-80
2023/05/28 03:00:46;;;;;;;9.83;3.80;;;;;;;12.12;77.39;99951.22;12215934;19;20015;-80
2023/05/28 03:04:48;;;;;;;9.50;3.77;;;;;;;12.02;80.31;99965.75;12215265;19;20507;-80
2023/05/28 03:08:51;;;;;;;9.55;4.10;;;;;;;11.90;82.44;99962.25;12193335;19;20239;-81
2023/05/28 03:12:53;;;;;;;8.15;4.03;;;;;;;11.82;83.33;99971.78;12215410;19;20027;-81
2023/05/28 03:16:55;;;;;;;10.37;4.10;;;;;;;11.71;83.83;99965.25;12214802;19;20084;-81
2023/05/28 03:20:59;;;;;;;7.75;3.72;;;;;;;11.57;85.69;99972.22;12192113;19;20007;-80
2023/05/28 03:25:03;;;;;;;8.90;3.72;;;;;;;11.45;88.96;99977.88;12213664;19;20014;-80
2023/05/28 03:29:04;;;;;;;9.88;4.68;;;;;;;11.35;89.17;99983.19;12202136;19;20018;-81
2023/05/28 03:33:15;;;;;;;11.23;4.10;;;;;;;11.25;90.87;99978.34;12214342;19;20010;-79
2023/05/28 03:37:17;;;;;;;9.30;3.83;;;;;;;11.20;92.96;99983.78;12209394;19;20007;-81
2023/05/28 03:41:20;;;;;;;11.80;4.45;;;;;;;11.14;94.17;99982.84;12192018;19;20520;-80
2023/05/28 03:45:22;;;;;;;9.45;4.43;;;;;;;11.08;95.67;99971.97;12211548;19;20374;-80
2023/05/28 03:49:23;;;;;;;12.63;4.40;;;;;;;10.98;96.88;99980.09;12213078;19;20070;-80
2023/05/28 03:53:27;;;;;;;9.00;4.13;;;;;;;10.95;98.40;99979.50;12189828;19;20098;-80
2023/05/28 03:57:28;;;;;;;8.73;3.65;;;;;;;10.96;98.00;99983.09;12212873;19;20007;-79
2023/05/28 04:01:34;;;;;;;11.98;4.53;;;;;;;10.93;97.53;99983.56;12261730;19;20029;-79
2023/05/28 04:05:36;;;;;;;10.68;4.40;;;;;;;10.91;98.04;99975.53;12206474;19;20019;-80
2023/05/28 04:09:38;;;;;;;12.10;4.50;;;;;;;10.88;98.28;99978.78;12219629;19;20022;-80
2023/05/28 04:13:40;;;;;;;11.27;4.30;;;;;;;10.88;98.52;99965.00;12215661;19;20022;-81
2023/05/28 04:17:42;;;;;;;10.82;4.15;;;;;;;10.88;98.93;99967.75;12192504;19;20031;-80
2023/05/28 04:21:45;;;;;;;16.77;4.67;;;;;;;10.86;99.49;99964.44;12215087;19;20006;-80
2023/05/28 04:25:47;;;;;;;11.68;4.68;;;;;;;10.85;99.99;99962.75;12212946;19;20022;-81
2023/05/28 04:29:49;;;;;;;9.98;4.05;;;;;;;10.84;99.66;99966.59;12191543;19;20373;-80
2023/05/28 04:33:51;;;;;;;12.57;4.57;;;;;;;10.82;100.00;99968.75;12211325;19;20007;-81
2023/05/28 04:37:53;;;;;;;10.35;5.05;;;;;;;10.83;100.00;99973.22;12212952;19;20022;-80
2023/05/28 04:41:55;;;;;;;9.00;5.10;;;;;;;10.87;100.00;99979.06;12187531;19;20402;-81
2023/05/28 04:45:58;;;;;;;9.07;4.78;;;;;;;10.88;100.00;99973.28;12210079;19;20011;-79
2023/05/28 04:50:03;;;;;;;8.85;4.72;;;;;;;10.94;100.00;99971.47;12211446;19;20006;-80
2023/05/28 04:54:05;;;;;;;9.27;4.45;;;;;;;11.01;100.00;99980.44;12190233;19;20018;-80
2023/05/28 04:58:07;;;;;;;12.32;4.38;;;;;;;11.08;100.00;99980.25;12207620;19;20034;-80
2023/05/28 05:02:12;;;;;;;11.07;4.63;;;;;;;11.14;100.00;99982.84;12187577;19;20297;-80
2023/05/28 05:06:14;;;;;;;11.75;4.65;;;;;;;11.20;100.00;99986.53;12208158;19;20089;-80
2023/05/28 05:10:17;;;;;;;8.03;4.43;;;;;;;11.28;100.00;99979.78;12211035;19;20480;-81
2023/05/28 05:14:18;;;;;;;10.23;4.68;;;;;;;11.35;100.00;99995.06;12186444;19;20116;-81
2023/05/28 05:18:22;;;;;;;11.52;4.78;;;;;;;11.44;100.00;99997.41;12220560;19;20034;-80
2023/05/28 05:22:24;;;;;;;11.00;4.28;;;;;;;11.50;100.00;100001.91;12218109;19;20018;-79
2023/05/28 05:26:25;;;;;;;10.75;4.82;;;;;;;11.60;100.00;100002.06;12200171;19;20408;-80
2023/05/28 05:30:27;;;;;;;7.82;4.50;;;;;;;11.71;100.00;99998.38;12216212;19;20010;-79
2023/05/28 05:34:30;;;;;;;11.50;4.65;;;;;;;11.82;100.00;99994.69;12218576;19;20006;-80
2023/05/28 05:38:56;;;;;;;9.68;4.38;;;;;;;11.93;100.00;99992.97;12195738;19;20031;-80
2023/05/28 05:43:09;;;;;;;;;;;;;;;12.02;100.00;99996.97;12220060;19;20021;-81
2023/05/28 05:47:12;;;;;;;10.80;4.80;;;;;;;12.12;100.00;99992.66;12197602;19;19942;-81
2023/05/28 05:51:18;;;;;;;9.73;4.10;;;;;;;12.24;100.00;99988.69;12218272;19;20047;-81
2023/05/28 05:55:20;;;;;;;12.55;4.65;;;;;;;12.39;100.00;99987.22;12217826;19;20006;-79
2023/05/28 05:59:22;;;;;;;8.50;3.78;;;;;;;12.53;100.00;99994.00;12195873;19;20010;-80
2023/05/28 06:03:24;;;;;;;11.98;4.95;;;;;;;12.71;100.00;99998.38;12219152;19;20010;-81
2023/05/28 06:07:41;;;;;;;10.50;4.57;;;;;;;12.89;100.00;100005.47;12218272;19;20007;-80
2023/05/28 06:12:12;;;;;;;7.68;3.85;;;;;;;13.08;100.00;99992.94;12195816;19;20031;-81
2023/05/28 06:16:13;;;;;;;7.55;3.45;;;;;;;13.34;99.93;99994.03;12219109;19;20011;-81
2023/05/28 06:20:16;;;;;;;11.35;4.38;;;;;;;13.59;96.45;99995.34;12194480;19;20113;-81
2023/05/28 06:24:18;;;;;;;8.00;3.95;;;;;;;13.87;95.47;99994.16;12206053;19;20014;-81
2023/05/28 06:28:21;;;;;;;9.68;3.97;;;;;;;14.13;93.14;99998.75;12200708;19;20002;-80
2023/05/28 06:32:23;;;;;;;10.93;3.72;;;;;;;14.37;89.49;99995.53;12186320;19;20022;-80
2023/05/28 06:36:26;;;;;;;8.57;3.47;;;;;;;14.66;87.64;99997.88;12195299;19;20010;-82
2023/05/28 06:40:28;;;;;;;10.38;4.28;;;;;;;14.90;84.82;100003.78;12217742;19;20020;-80
2023/05/28 06:44:30;;;;;;;9.88;3.92;;;;;;;15.22;83.40;99998.00;12192912;19;20094;-80
2023/05/28 06:48:37;;;;;;;8.80;4.18;;;;;;;15.49;81.14;99998.56;12218327;19;20035;-80
2023/05/28 06:52:40;;;;;;;6.93;3.70;;;;;;;15.73;76.15;100000.81;12217124;19;20018;-79
2023/05/28 06:56:42;;;;;;;8.15;4.15;;;;;;;16.02;76.57;100008.56;12194077;19;20106;-81
2023/05/28 07:01:07;;;;;;;8.07;4.47;;;;;;;16.34;74.29;100009.03;12218034;19;20021;-81
2023/05/28 07:05:28;;;;;;;9.30;3.95;;;;;;;16.66;72.84;100018.06;12198514;19;20035;-81
2023/05/28 07:09:29;;;;;;;8.00;4.13;;;;;;;16.98;71.54;100017.66;12217168;19;20006;-82
2023/05/28 07:13:33;;;;;;;10.52;3.92;;;;;;;17.15;69.12;100014.50;12217844;19;20019;-81
2023/05/28 07:17:36;;;;;;;7.35;3.80;;;;;;;17.37;68.19;100017.72;12193161;19;20010;-80
2023/05/28 07:21:38;;;;;;;9.10;4.50;;;;;;;17.62;67.42;100013.88;12217876;19;20007;-80
2023/05/28 07:25:42;;;;;;;8.80;3.75;;;;;;;17.87;65.15;100014.78;12214263;19;20014;-82
2023/05/28 07:29:44;;;;;;;10.02;3.83;;;;;;;18.06;63.75;100017.69;12194521;19;20031;-80
2023/05/28 07:33:50;;;;;;;6.43;3.63;;;;;;;18.25;62.04;100020.53;12216943;19;20152;-81
2023/05/28 07:37:54;;;;;;;8.82;3.55;;;;;;;18.38;62.25;100019.81;12234506;19;20035;-80
2023/05/28 07:41:56;;;;;;;10.45;4.35;;;;;;;18.60;61.04;100027.66;12205984;19;20003;-83
2023/05/28 07:46:02;;;;;;;7.00;3.42;;;;;;;18.77;60.80;100033.63;12213468;19;20011;-83
2023/05/28 07:50:14;;;;;;;8.80;4.35;;;;;;;19.01;59.91;100032.75;12193491;19;20373;-82
2023/05/28 07:54:27;;;;;;;10.55;4.32;;;;;;;19.26;59.53;100029.56;12216003;19;20073;-80
2023/05/28 07:58:31;;;;;;;12.20;3.97;;;;;;;19.47;57.32;100035.69;12216039;19;20508;-83
2023/05/28 08:02:33;;;;;;;8.65;3.70;;;;;;;19.43;57.09;100023.47;12196576;19;20380;-82
2023/05/28 08:06:39;;;;;;;11.70;4.32;;;;;;;19.46;56.34;100027.63;12219936;19;19999;-82
2023/05/28 08:10:44;;;;;;;10.07;4.10;;;;;;;19.71;57.46;100018.81;12214269;19;20014;-81
2023/05/28 08:14:48;;;;;;;9.38;4.32;;;;;;;20.04;55.61;100014.03;12194131;19;20011;-81
2023/05/28 08:18:51;;;;;;;8.38;4.20;;;;;;;20.32;55.09;100016.88;12215289;19;20011;-81
2023/05/28 08:22:53;;;;;;;9.80;4.45;;;;;;;20.44;52.24;100002.38;12219022;19;20039;-82
2023/05/28 08:26:56;;;;;;;7.57;3.42;;;;;;;20.69;53.68;100001.03;12197700;19;20066;-81
2023/05/28 08:31:00;;;;;;;13.38;4.22;;;;;;;20.77;52.54;100000.31;12213781;19;20064;-81
2023/05/28 08:35:19;;;;;;;11.65;4.53;;;;;;;20.97;51.29;99992.56;12192259;19;20009;-82
2023/05/28 08:39:24;;;;;;;11.88;4.18;;;;;;;21.03;50.28;99991.31;12214986;19;20018;-81
2023/05/28 08:43:27;;;;;;;8.45;3.67;;;;;;;21.33;50.38;99985.00;12215579;19;20047;-82
2023/05/28 08:47:32;;;;;;;7.95;3.42;;;;;;;21.63;48.87;99988.22;12189466;19;20006;-83
2023/05/28 08:51:43;;;;;;;9.07;4.10;;;;;;;21.83;48.41;99981.25;12210903;19;20353;-82
2023/05/28 08:55:51;;;;;;;9.95;4.03;;;;;;;21.98;47.17;99983.66;12213906;19;20063;-82
2023/05/28 08:59:59;;;;;;;8.43;3.80;;;;;;;22.02;46.00;99978.22;12190142;19;20010;-83
2023/05/28 09:04:02;;;;;;;14.38;4.28;;;;;;;22.36;45.80;99976.75;12215170;19;20021;-81
2023/05/28 09:08:12;;;;;;;8.10;3.63;;;;;;;22.62;45.84;99974.84;12192212;19;20034;-82
2023/05/28 09:12:20;;;;;;;11.57;4.65;;;;;;;22.77;44.76;99967.13;12217102;19;20014;-82
2023/05/28 09:16:28;;;;;;;10.60;3.72;;;;;;;22.93;44.44;99962.66;12212210;19;20522;-82
2023/05/28 09:20:40;;;;;;;9.60;4.10;;;;;;;23.05;43.77;99957.25;12190939;19;20002;-83
2023/05/28 09:24:42;;;;;;;8.68;3.72;;;;;;;23.33;43.63;99959.75;12213023;19;20353;-82
2023/05/28 09:28:57;;;;;;;6.97;3.78;;;;;;;23.52;43.38;99957.41;12211136;19;20018;-83
2023/05/28 09:33:01;;;;;;;7.45;3.70;;;;;;;23.58;42.47;99961.69;12190069;19;20011;-81
2023/05/28 09:37:04;;;;;;;20.75;10.45;;;;;;;23.64;41.67;99949.09;12209973;19;20376;-82
2023/05/28 09:41:23;;;;;;;9.10;3.95;;;;;;;23.88;41.89;99942.13;12188514;19;20092;-83
2023/05/28 09:45:27;;;;;;;12.40;4.05;;;;;;;24.17;40.21;99944.16;12216359;19;20027;-81
2023/05/28 09:49:32;;;;;;;8.55;3.80;;;;;;;24.26;38.02;99947.78;12227240;19;20010;-82
2023/05/28 09:53:36;;;;;;;7.28;3.60;;;;;;;24.53;38.04;99956.94;12198064;19;20010;-81
2023/05/28 09:57:43;;;;;;;8.98;3.70;;;;;;;24.47;38.83;99944.22;12215765;19;20060;-82
2023/05/28 10:02:05;;;;;;;8.10;4.05;;;;;;;24.42;37.89;99950.88;12215915;19;20488;-83
2023/05/28 10:06:17;;;;;;;8.73;4.75;;;;;;;24.56;38.22;99945.00;12203853;19;20011;-85
2023/05/28 10:10:21;;;;;;;17.00;9.68;;;;;;;24.42;35.90;99948.06;12224636;19;20022;-82
2023/05/28 10:14:23;;;;;;;9.95;3.88;;;;;;;24.55;36.38;99947.00;12201869;19;20007;-83
2023/05/28 10:18:25;;;;;;;;;;;;;;;24.78;35.75;99943.88;12225818;19;20017;-81
2023/05/28 10:22:28;;;;;;;;;;;;;;;24.68;35.32;99939.44;12228959;19;20340;-82
2023/05/28 10:26:30;;;;;;;10.25;3.80;;;;;;;24.95;34.88;99942.91;12204865;19;19923;-82
2023/05/28 10:30:35;;;;;;;;;;;;;;;25.17;34.29;99936.16;12225724;19;20011;-83
2023/05/28 10:34:37;;;;;;;7.22;3.70;;;;;;;25.43;34.30;99928.28;12225388;19;20249;-84
2023/05/28 10:38:50;;;;;;;7.47;3.60;;;;;;;25.84;33.67;99929.34;12202069;19;20030;-82
2023/05/28 10:42:53;;;;;;;9.18;4.20;;;;;;;26.08;33.63;99924.91;12222654;19;20097;-83
2023/05/28 10:46:55;;;;;;;10.52;4.22;;;;;;;26.30;33.42;99930.13;12220648;19;20006;-84
2023/05/28 10:51:00;;;;;;;8.93;3.97;;;;;;;26.42;31.32;99934.13;12198739;19;20479;-84
2023/05/28 10:55:09;;;;;;;9.07;3.85;;;;;;;26.39;30.94;99923.53;12229169;19;20017;-84
2023/05/28 10:59:14;;;;;;;8.65;4.05;;;;;;;26.49;30.51;99928.69;12202877;19;20026;-83
2023/05/28 11:03:18;;;;;;;10.40;3.83;;;;;;;26.67;30.28;99918.00;12226010;19;20362;-85
2023/05/28 11:07:46;;;;;;;9.63;3.60;;;;;;;27.11;27.83;99903.97;12228188;19;20015;-85
2023/05/28 11:11:57;;;;;;;;;;;;;;;27.27;28.46;99913.38;12223475;19;20046;-80
2023/05/28 11:16:10;;;;;;;8.95;3.22;;;;;;;27.26;25.80;99912.56;12224599;19;19976;-83
2023/05/28 11:20:19;;;;;;;10.88;4.20;;;;;;;27.21;26.79;99915.63;12205614;19;20014;-82
2023/05/28 11:24:22;;;;;;;7.10;4.10;;;;;;;27.11;27.86;99901.16;12258078;19;20039;-84
2023/05/28 11:28:24;;;;;;;;;;;;;;;27.17;25.85;99908.22;12237354;19;20006;-85
2023/05/28 11:32:27;;;;;;;7.20;3.57;;;;;;;27.48;27.54;99901.84;12206435;19;19960;-84
2023/05/28 11:36:29;;;;;;;7.35;3.80;;;;;;;27.78;27.55;99899.44;12227220;19;20011;-85
2023/05/28 11:40:35;;;;;;;10.55;4.10;;;;;;;28.09;26.81;99898.66;12225228;19;20006;-85
2023/05/28 11:44:43;;;;;;;11.25;4.15;;;;;;;28.16;26.73;99887.50;12207918;19;20006;-85
2023/05/28 11:48:45;;;;;;;7.20;4.35;;;;;;;28.34;27.21;99899.25;12220329;19;20006;-85
2023/05/28 11:52:46;;;;;;;10.88;5.50;;;;;;;28.63;27.00;99880.13;12225410;19;20639;-85
2023/05/28 11:56:50;;;;;;;10.52;4.18;;;;;;;28.55;26.39;99881.97;12202500;19;20017;-85
2023/05/28 12:00:55;;;;;;;7.65;4.28;;;;;;;28.58;26.76;99872.72;12220352;19;20018;-84
2023/05/28 12:05:00;;;;;;;8.45;4.80;;;;;;;28.46;25.71;99878.50;12223501;19;20665;-84
2023/05/28 12:09:05;;;;;;;10.95;4.72;;;;;;;28.71;27.48;99878.28;12199266;19;20014;-84
2023/05/28 12:13:07;;;;;;;5.15;3.70;;;;;;;29.19;26.47;99876.94;12223507;19;20091;-84
2023/05/28 12:17:10;;;;;;;8.07;4.82;;;;;;;29.95;25.99;99871.50;12197901;19;20634;-85
2023/05/28 12:21:13;;;;;;;10.23;4.75;;;;;;;30.90;24.94;99875.41;12223969;19;20099;-84
2023/05/28 12:25:14;;;;;;;9.57;4.68;;;;;;;31.69;24.08;99871.50;12218072;19;20007;-81
2023/05/28 12:29:16;;;;;;;8.52;4.75;;;;;;;32.72;23.42;99872.78;12195614;19;20396;-82
2023/05/28 12:33:19;;;;;;;;;;;;;;;33.33;21.80;99862.47;12219616;19;20692;-83
2023/05/28 12:37:21;;;;;;;9.73;6.32;;;;;;;33.75;22.69;99864.63;12216669;19;19919;-83
2023/05/28 12:41:23;;;;;;;7.90;5.10;;;;;;;34.29;21.26;99853.22;12194689;19;20015;-84
2023/05/28 12:45:26;;;;;;;9.70;6.00;;;;;;;34.23;20.95;99844.25;12216622;19;20365;-81
2023/05/28 12:49:28;;;;;;;8.98;5.53;;;;;;;34.76;20.62;99845.41;12213879;19;20082;-84
2023/05/28 12:53:31;;;;;;;7.85;5.50;;;;;;;35.15;20.02;99850.19;12194836;19;20393;-83
2023/05/28 12:57:33;;;;;;;10.73;6.30;;;;;;;35.60;19.38;99845.44;12217143;19;20010;-82
2023/05/28 13:01:38;;;;;;;8.88;6.15;;;;;;;35.95;19.69;99834.94;12217815;19;20010;-84
2023/05/28 13:05:40;;;;;;;7.97;5.75;;;;;;;36.19;18.53;99833.13;12194015;19;20463;-83
2023/05/28 13:09:43;;;;;;;7.38;5.28;;;;;;;36.56;18.67;99828.69;12217487;19;20006;-83
2023/05/28 13:13:44;;;;;;;7.78;5.32;;;;;;;37.04;18.09;99819.13;12216434;19;20488;-82
2023/05/28 13:17:46;;;;;;;10.57;5.75;;;;;;;37.78;17.61;99816.41;12196382;19;20093;-83
2023/05/28 13:21:48;;;;;;;8.13;5.43;;;;;;;38.26;17.50;99811.50;12217310;19;20003;-83
2023/05/28 13:25:50;;;;;;;8.23;5.22;;;;;;;38.40;17.58;99801.81;12214915;19;20002;-83
2023/05/28 13:29:52;;;;;;;8.52;5.53;;;;;;;38.46;17.56;99802.91;12193371;19;20087;-84
2023/05/28 13:33:54;;;;;;;6.97;5.07;;;;;;;38.77;17.28;99806.44;12217859;19;20010;-84
2023/05/28 13:37:56;;;;;;;8.82;5.10;;;;;;;38.98;17.23;99808.88;12215676;19;20023;-83
2023/05/28 13:41:58;;;;;;;9.00;5.60;;;;;;;39.43;16.54;99802.53;12199897;19;20444;-84
2023/05/28 13:46:00;;;;;;;9.13;5.13;;;;;;;39.38;16.31;99800.19;12225911;19;20014;-83
2023/05/28 13:50:03;;;;;;;7.22;5.28;;;;;;;39.96;16.74;99798.81;12219965;19;20016;-83
2023/05/28 13:54:06;;;;;;;8.68;5.28;;;;;;;40.60;16.36;99796.28;12199143;19;20003;-84
2023/05/28 13:58:08;;;;;;;8.50;5.32;;;;;;;40.59;15.84;99783.09;12224910;19;20013;-83
2023/05/28 14:02:11;;;;;;;7.03;4.88;;;;;;;41.24;15.64;99787.81;12210154;19;20018;-82
2023/05/28 14:06:13;;;;;;;6.97;4.53;;;;;;;41.06;14.53;99771.03;12225596;19;20031;-84
2023/05/28 14:10:15;;;;;;;12.40;5.35;;;;;;;40.12;15.71;99772.00;12221429;19;20027;-82
2023/05/28 14:14:17;;;;;;;7.53;5.05;;;;;;;39.75;16.76;99772.13;12202960;19;20031;-84
2023/05/28 14:18:18;;;;;;;7.38;4.78;;;;;;;40.85;16.14;99767.50;12222254;19;20753;-84
2023/05/28 14:22:20;;;;;;;7.05;4.78;;;;;;;40.92;15.69;99766.47;12220827;19;20087;-82
2023/05/28 14:26:22;;;;;;;6.78;5.05;;;;;;;41.09;15.66;99761.44;12200205;19;20010;-83
2023/05/28 14:30:24;;;;;;;6.25;4.20;;;;;;;41.31;15.77;99764.47;12219386;19;20450;-82
2023/05/28 14:34:25;;;;;;;6.68;4.85;;;;;;;42.32;15.26;99754.03;12219954;19;20855;-83
2023/05/28 14:38:27;;;;;;;9.02;4.72;;;;;;;41.99;14.96;99757.25;12194028;19;20014;-84
2023/05/28 14:42:32;;;;;;;6.80;4.28;;;;;;;41.73;15.04;99768.03;12220886;19;20018;-83
2023/05/28 14:46:33;;;;;;;7.00;4.72;;;;;;;39.38;15.96;99753.25;12219967;19;20027;-83
2023/05/28 14:50:36;;;;;;;7.25;4.75;;;;;;;37.81;16.87;99742.84;12192695;19;20034;-83
2023/05/28 14:54:39;;;;;;;6.97;4.85;;;;;;;36.61;17.79;99739.22;12216378;19;20010;-83
2023/05/28 14:58:40;;;;;;;8.43;5.10;;;;;;;35.64;19.41;99738.56;12218408;19;20018;-84
2023/05/28 15:02:42;;;;;;;7.97;5.53;;;;;;;36.53;18.83;99737.72;12197067;19;20365;-82
2023/05/28 15:06:44;;;;;;;6.70;4.93;;;;;;;37.31;17.94;99738.69;12230741;19;20463;-83
2023/05/28 15:10:46;;;;;;;8.10;5.43;;;;;;;37.93;17.28;99730.75;12225755;19;20009;-83
2023/05/28 15:14:48;;;;;;;9.13;5.57;;;;;;;38.47;17.47;99721.91;12236215;19;20025;-81
2023/05/28 15:18:50;;;;;;;7.47;5.32;;;;;;;37.77;17.71;99716.19;12250831;19;20017;-83
2023/05/28 15:22:52;;;;;;;7.57;5.40;;;;;;;35.88;18.99;99723.22;12230969;19;20197;-83
2023/05/28 15:26:53;;;;;;;7.78;5.15;;;;;;;33.62;21.19;99723.41;12207165;19;20010;-79
2023/05/28 15:30:55;;;;;;;9.18;5.30;;;;;;;32.04;22.36;99716.34;12226491;19;20010;-82
2023/05/28 15:34:57;;;;;;;8.38;5.10;;;;;;;30.83;23.54;99727.41;12232168;19;20446;-83
2023/05/28 15:38:59;;;;;;;8.95;4.47;;;;;;;29.96;24.54;99722.56;12202666;19;20014;-83
2023/05/28 15:43:05;;;;;;;6.70;4.25;;;;;;;29.20;25.42;99718.84;12227760;19;20031;-82
2023/05/28 15:47:07;;;;;;;9.15;4.85;;;;;;;28.71;26.09;99713.84;12210693;19;20067;-80
2023/05/28 15:51:11;;;;;;;7.40;4.15;;;;;;;28.23;26.84;99704.69;12220753;19;20015;-81
2023/05/28 15:55:13;;;;;;;9.00;4.80;;;;;;;27.91;27.27;99707.66;12215650;19;20035;-82
2023/05/28 15:59:15;;;;;;;;;;;;;;;27.57;26.83;99712.84;12200114;19;20022;-82
2023/05/28 16:03:19;;;;;;;7.50;3.75;;;;;;;27.38;26.87;99704.31;12216700;19;19907;-81
2023/05/28 16:07:22;;;;;;;13.48;4.88;;;;;;;27.24;28.15;99722.53;12223715;19;20016;-81
2023/05/28 16:11:28;;;;;;;10.88;4.70;;;;;;;26.96;28.41;99710.47;12196312;19;20023;-79
2023/05/28 16:15:30;;;;;;;8.95;5.05;;;;;;;26.72;28.39;99700.13;12220872;19;20531;-81
2023/05/28 16:19:32;;;;;;;;;;;;;;;26.53;28.63;99695.97;12218388;19;20480;-81
2023/05/28 16:23:33;;;;;;;10.27;4.97;;;;;;;26.63;29.32;99697.44;12197360;19;19918;-81
2023/05/28 16:27:36;;;;;;;9.93;4.57;;;;;;;26.58;29.11;99686.41;12218503;19;20057;-81
2023/05/28 16:31:38;;;;;;;9.13;4.72;;;;;;;26.22;29.49;99693.81;12218416;19;20468;-81
2023/05/28 16:35:40;;;;;;;;;;;;;;;26.09;29.44;99687.38;12198286;19;20014;-81
2023/05/28 16:39:43;;;;;;;9.27;4.97;;;;;;;26.09;30.15;99689.38;12204820;19;20465;-80
2023/05/28 16:43:46;;;;;;;8.90;4.43;;;;;;;26.08;30.54;99696.19;12206972;19;20014;-81
2023/05/28 16:47:48;;;;;;;;;;;;;;;26.10;30.43;99679.72;12198328;19;20011;-81
2023/05/28 16:51:50;;;;;;;6.77;4.10;;;;;;;25.94;31.26;99684.44;12215166;19;19914;-79
2023/05/28 16:55:53;;;;;;;8.43;4.13;;;;;;;25.79;31.71;99686.81;12209237;19;20007;-78
2023/05/28 16:59:56;;;;;;;9.18;4.60;;;;;;;25.72;32.13;99688.59;12192646;19;20014;-80
2023/05/28 17:03:58;;;;;;;10.25;5.03;;;;;;;25.71;32.08;99684.94;12214129;19;20081;-81
2023/05/28 17:08:00;;;;;;;7.72;4.30;;;;;;;25.65;32.29;99689.19;12215323;19;20361;-80
2023/05/28 17:12:02;;;;;;;7.15;4.32;;;;;;;25.60;32.90;99687.41;12187405;19;20099;-81
2023/05/28 17:16:05;;;;;;;6.60;4.20;;;;;;;25.51;33.15;99685.91;12207738;19;20011;-80
2023/05/28 17:20:08;;;;;;;9.70;4.50;;;;;;;25.44;32.59;99689.31;12187300;19;20010;-81
2023/05/28 17:24:11;;;;;;;8.07;4.00;;;;;;;25.35;32.16;99680.16;12209356;19;20814;-80
2023/05/28 17:28:13;;;;;;;7.35;4.47;;;;;;;25.25;32.67;99684.25;12209421;19;20011;-81
2023/05/28 17:32:15;;;;;;;8.45;4.32;;;;;;;25.12;32.21;99686.19;12188977;19;20159;-83
2023/05/28 17:36:17;;;;;;;8.40;4.30;;;;;;;25.07;32.41;99688.44;12207460;19;20014;-80
2023/05/28 17:40:19;;;;;;;8.55;4.20;;;;;;;24.98;33.50;99694.16;12203120;19;20043;-82
2023/05/28 17:44:23;;;;;;;7.35;3.92;;;;;;;24.90;33.61;99695.09;12189395;19;20010;-81
2023/05/28 17:48:25;;;;;;;8.77;3.72;;;;;;;24.76;34.31;99692.59;12210972;19;20006;-81
2023/05/28 17:52:27;;;;;;;;;;;;;;;24.69;33.56;99697.97;12216866;19;20078;-82
2023/05/28 17:56:32;;;;;;;8.55;4.05;;;;;;;24.75;33.76;99705.03;12182541;19;19992;-81
2023/05/28 18:00:34;;;;;;;6.70;3.90;;;;;;;24.68;34.37;99704.78;12212524;19;20010;-80
2023/05/28 18:04:37;;;;;;;7.45;3.72;;;;;;;24.45;35.44;99708.00;12208009;19;20095;-81
2023/05/28 18:08:42;;;;;;;6.57;3.72;;;;;;;24.25;35.51;99706.78;12187709;19;20011;-81
2023/05/28 18:12:45;;;;;;;8.60;3.55;;;;;;;24.06;35.72;99701.66;12210935;19;20031;-80
2023/05/28 18:16:48;;;;;;;7.00;4.20;;;;;;;23.99;35.58;99701.38;12210633;19;20020;-82
2023/05/28 18:20:50;;;;;;;11.73;4.45;;;;;;;24.10;35.97;99708.25;12187105;19;20006;-80
2023/05/28 18:24:52;;;;;;;5.88;3.40;;;;;;;23.89;36.37;99710.22;12217716;19;20013;-79
2023/05/28 18:28:53;;;;;;;6.67;3.43;;;;;;;23.64;36.47;99718.44;12220657;19;20042;-79
2023/05/28 18:32:55;;;;;;;7.60;3.67;;;;;;;23.43;36.73;99706.31;12199459;19;20014;-81
2023/05/28 18:36:57;;;;;;;8.30;3.70;;;;;;;23.19;37.53;99718.97;12221364;19;20006;-80
2023/05/28 18:41:00;;;;;;;6.80;4.03;;;;;;;22.96;38.32;99726.00;12219379;19;20018;-80
2023/05/28 18:45:03;;;;;;;8.02;3.85;;;;;;;22.69;39.25;99724.38;12196802;19;20432;-79
2023/05/28 18:49:06;;;;;;;6.88;3.80;;;;;;;22.42;39.92;99731.19;12219321;19;20010;-80
2023/05/28 18:53:08;;;;;;;7.50;3.77;;;;;;;22.13;40.34;99743.03;12189557;19;20015;-80